createdAt,value
2018-02-22T00:00:07.386Z,69.50
2018-02-22T00:02:35.931Z,73.50
2018-02-22T00:05:04.640Z,67.57
2018-02-22T00:07:33.327Z,75.47
2018-02-22T00:10:01.734Z,79.07
2018-02-22T00:12:30.915Z,70.70
2018-02-22T00:14:59.389Z,81.00
2018-02-22T00:17:27.795Z,66.27
2018-02-22T00:19:56.336Z,62.83
2018-02-22T00:22:25.018Z,63.37
2018-02-22T00:24:53.425Z,62.57
2018-02-22T00:27:22.610Z,61.67
2018-02-22T00:29:51.303Z,69.25
2018-02-22T00:32:19.995Z,55.35
2018-02-22T00:34:49.382Z,67.80
2018-02-22T00:37:18.069Z,74.20
2018-02-22T00:39:46.557Z,70.40
2018-02-22T00:42:14.969Z,58.40
2018-02-22T00:44:43.438Z,48.17
2018-02-22T00:47:12.125Z,59.30
2018-02-22T00:49:41.307Z,59.23
2018-02-22T00:52:09.919Z,66.17
2018-02-22T00:54:39.433Z,63.63
2018-02-22T00:57:07.853Z,54.47
2018-02-22T00:59:36.259Z,66.17
2018-02-22T01:02:04.924Z,71.37
2018-02-22T01:04:33.346Z,58.87
2018-02-22T01:07:02.603Z,55.58
2018-02-22T01:09:31.242Z,57.97
2018-02-22T01:11:59.670Z,55.20
2018-02-22T01:14:28.138Z,68.37
2018-02-22T01:16:56.609Z,47.90
2018-02-22T01:19:25.310Z,60.65
2018-02-22T01:21:53.901Z,48.10
2018-02-22T01:24:22.593Z,61.90
2018-02-22T01:26:51.130Z,50.57
2018-02-22T01:29:19.817Z,48.50
2018-02-22T01:31:48.242Z,61.57
2018-02-22T01:34:16.711Z,55.20
2018-02-22T01:36:46.204Z,46.70
2018-02-22T01:39:14.777Z,45.23
2018-02-22T01:41:43.469Z,43.08
2018-02-22T01:44:13.070Z,41.58
2018-02-22T01:46:41.816Z,54.20
2018-02-22T01:49:10.213Z,45.57
2018-02-22T01:51:38.897Z,50.80
2018-02-22T01:54:07.397Z,43.33
2018-02-22T01:56:36.105Z,44.03
2018-02-22T01:59:05.297Z,45.97
2018-02-22T02:01:34.014Z,45.30
2018-02-22T02:04:02.423Z,38.40
2018-02-22T02:06:30.841Z,40.87
2018-02-22T02:08:59.246Z,41.97
2018-02-22T02:11:27.957Z,46.30
2018-02-22T02:13:56.512Z,49.83
2018-02-22T02:16:25.195Z,45.47
2018-02-22T02:18:53.892Z,47.67
2018-02-22T02:21:21.978Z,38.80
2018-02-22T02:23:50.398Z,49.77
2018-02-22T02:26:18.896Z,54.50
2018-02-22T02:28:48.387Z,42.80
2018-02-22T02:31:17.078Z,45.60
2018-02-22T02:33:46.264Z,52.83
2018-02-22T02:36:14.986Z,38.50
2018-02-22T02:38:43.453Z,47.20
2018-02-22T02:41:12.150Z,36.42
2018-02-22T02:43:41.734Z,38.20
2018-02-22T02:46:10.413Z,42.07
2018-02-22T02:48:38.919Z,47.00
2018-02-22T02:51:07.591Z,36.60
2018-02-22T02:53:36.806Z,43.87
2018-02-22T02:56:05.509Z,49.58
2018-02-22T02:58:34.181Z,42.10
2018-02-22T03:01:02.603Z,48.17
2018-02-22T03:03:31.194Z,44.73
2018-02-22T03:05:59.613Z,48.97
2018-02-22T03:08:28.025Z,51.40
2018-02-22T03:10:56.762Z,49.60
2018-02-22T03:13:24.971Z,39.87
2018-02-22T03:15:54.449Z,50.95
2018-02-22T03:18:23.129Z,46.63
2018-02-22T03:20:52.313Z,54.83
2018-02-22T03:23:21.005Z,55.77
2018-02-22T03:25:49.557Z,55.17
2018-02-22T03:28:17.971Z,54.67
2018-02-22T03:30:47.155Z,54.90
2018-02-22T03:33:16.351Z,60.07
2018-02-22T03:35:45.541Z,57.50
2018-02-22T03:38:14.217Z,52.20
2018-02-22T03:40:42.616Z,60.00
2018-02-22T03:43:11.085Z,83.00
2018-02-22T03:45:40.495Z,69.70
2018-02-22T03:48:09.669Z,65.30
2018-02-22T03:50:38.365Z,61.30
2018-02-22T03:53:06.780Z,80.63
2018-02-22T03:55:35.454Z,59.90
2018-02-22T03:58:04.642Z,64.57
2018-02-22T04:00:33.811Z,72.93
2018-02-22T04:03:02.226Z,81.43
2018-02-22T04:05:31.676Z,64.97
2018-02-22T04:08:00.369Z,62.13
2018-02-22T04:10:28.790Z,56.13
2018-02-22T04:12:57.326Z,59.53
2018-02-22T04:15:25.746Z,72.80
2018-02-22T04:17:54.918Z,55.43
2018-02-22T04:20:23.326Z,74.50
2018-02-22T04:22:52.522Z,56.97
2018-02-22T04:25:21.690Z,62.83
2018-02-22T04:27:50.106Z,64.97
2018-02-22T04:30:18.818Z,60.20
2018-02-22T04:32:47.234Z,65.43
2018-02-22T04:35:15.858Z,64.93
2018-02-22T04:37:44.334Z,63.40
2018-02-22T04:40:12.758Z,71.97
2018-02-22T04:42:41.166Z,73.23
2018-02-22T04:45:09.834Z,65.47
2018-02-22T04:47:39.354Z,69.40
2018-02-22T04:50:07.764Z,65.43
2018-02-22T04:52:36.207Z,70.93
2018-02-22T04:55:04.578Z,75.80
2018-02-22T04:57:33.257Z,68.05
2018-02-22T05:00:01.959Z,58.55
2018-02-22T05:02:31.139Z,59.47
2018-02-22T05:04:59.561Z,61.90
2018-02-22T05:07:28.296Z,54.33
2018-02-22T05:09:56.909Z,79.77
2018-02-22T05:12:26.101Z,63.53
2018-02-22T05:14:54.511Z,62.57
2018-02-22T05:17:22.907Z,72.33
2018-02-22T05:19:52.347Z,61.47
2018-02-22T05:22:20.391Z,65.70
2018-02-22T05:24:49.035Z,73.10
2018-02-22T05:27:17.691Z,74.23
2018-02-22T05:29:46.359Z,61.00
2018-02-22T05:32:14.742Z,78.87
2018-02-22T05:34:43.126Z,57.60
2018-02-22T05:37:11.517Z,63.03
2018-02-22T05:39:40.175Z,58.20
2018-02-22T05:42:08.566Z,56.97
2018-02-22T05:44:37.218Z,51.20
2018-02-22T05:47:06.632Z,58.95
2018-02-22T05:49:35.022Z,55.10
2018-02-22T05:52:03.407Z,58.03
2018-02-22T05:54:32.068Z,59.15
2018-02-22T05:57:00.730Z,56.67
2018-02-22T05:59:29.110Z,47.50
2018-02-22T06:01:57.518Z,56.30
2018-02-22T06:04:25.914Z,61.53
2018-02-22T06:06:54.585Z,55.70
2018-02-22T06:09:23.154Z,53.83
2018-02-22T06:11:51.820Z,54.58
2018-02-22T06:14:20.197Z,61.40
2018-02-22T06:16:49.615Z,60.58
2018-02-22T06:19:18.285Z,48.75
2018-02-22T06:21:47.701Z,56.03
2018-02-22T06:24:16.858Z,59.30
2018-02-22T06:26:45.517Z,56.97
2018-02-22T06:29:13.899Z,50.90
2018-02-22T06:31:42.294Z,52.30
2018-02-22T06:34:11.462Z,64.70
2018-02-22T06:36:40.236Z,46.37
2018-02-22T06:39:08.760Z,53.13
2018-02-22T06:41:37.382Z,53.10
2018-02-22T06:44:05.690Z,61.90
2018-02-22T06:46:34.205Z,37.60
2018-02-22T06:49:02.638Z,52.57
2018-02-22T06:51:31.198Z,48.93
2018-02-22T06:53:59.586Z,50.30
2018-02-22T06:56:28.121Z,64.70
2018-02-22T06:58:56.935Z,49.47
2018-02-22T07:01:25.727Z,49.53
2018-02-22T07:03:54.169Z,48.47
2018-02-22T07:06:23.325Z,60.80
2018-02-22T07:08:52.010Z,51.60
2018-02-22T07:11:20.443Z,55.33
2018-02-22T07:13:49.106Z,50.42
2018-02-22T07:16:17.669Z,50.00
2018-02-22T07:18:47.061Z,59.87
2018-02-22T07:21:15.728Z,60.53
2018-02-22T07:23:45.138Z,46.30
2018-02-22T07:26:13.805Z,51.03
2018-02-22T07:28:43.241Z,51.35
2018-02-22T07:31:12.193Z,49.45
2018-02-22T07:33:41.644Z,54.25
2018-02-22T07:36:10.385Z,47.20
2018-02-22T07:38:39.827Z,55.50
2018-02-22T07:41:08.509Z,50.78
2018-02-22T07:43:36.889Z,43.43
2018-02-22T07:46:05.553Z,42.67
2018-02-22T07:48:34.321Z,49.50
2018-02-22T07:51:03.722Z,57.53
2018-02-22T07:53:32.120Z,43.20
2018-02-22T07:56:00.491Z,45.87
2018-02-22T07:58:29.174Z,56.20
2018-02-22T08:00:57.951Z,46.93
2018-02-22T08:03:27.379Z,51.67
2018-02-22T08:05:56.047Z,47.30
2018-02-22T08:08:24.418Z,45.80
2018-02-22T08:10:52.474Z,51.30
2018-02-22T08:13:20.968Z,46.90
2018-02-22T08:15:49.346Z,47.63
2018-02-22T08:18:17.578Z,48.17
2018-02-22T08:20:46.729Z,40.50
2018-02-22T08:23:15.394Z,51.05
2018-02-22T08:25:43.787Z,48.83
2018-02-22T08:28:12.423Z,47.10
2018-02-22T08:30:41.577Z,52.90
2018-02-22T08:33:10.242Z,50.42
2018-02-22T08:35:38.629Z,42.20
2018-02-22T08:38:08.054Z,47.37
2018-02-22T08:40:36.808Z,44.33
2018-02-22T08:43:06.238Z,50.35
2018-02-22T08:45:34.626Z,44.20
2018-02-22T08:48:03.926Z,43.50
2018-02-22T08:50:32.310Z,51.47
2018-02-22T08:53:00.972Z,54.40
2018-02-22T08:55:29.635Z,43.35
2018-02-22T08:57:58.025Z,52.50
2018-02-22T09:00:26.413Z,47.53
2018-02-22T09:02:54.815Z,50.07
2018-02-22T09:05:23.427Z,43.83
2018-02-22T09:07:52.590Z,43.97
2018-02-22T09:10:22.492Z,51.27
2018-02-22T09:12:50.890Z,41.33
2018-02-22T09:15:20.265Z,43.83
2018-02-22T09:17:48.939Z,47.88
2018-02-22T09:20:17.323Z,45.10
2018-02-22T09:22:45.716Z,48.20
2018-02-22T09:25:14.384Z,39.00
2018-02-22T09:27:42.762Z,49.97
2018-02-22T09:30:11.424Z,40.95
2018-02-22T09:32:40.862Z,48.38
2018-02-22T09:35:09.559Z,50.83
2018-02-22T09:37:38.230Z,47.22
2018-02-22T09:40:06.680Z,45.90
2018-02-22T09:42:35.162Z,45.63
2018-02-22T09:45:03.915Z,41.72
2018-02-22T09:47:32.605Z,46.87
2018-02-22T09:50:01.250Z,36.20
2018-02-22T09:52:29.658Z,39.53
2018-02-22T09:54:59.133Z,45.30
2018-02-22T09:57:27.529Z,40.37
2018-02-22T09:59:55.905Z,41.17
2018-02-22T10:02:24.469Z,41.60
2018-02-22T10:04:52.851Z,55.10
2018-02-22T10:07:21.571Z,50.00
2018-02-22T10:09:50.721Z,42.77
2018-02-22T10:12:19.392Z,50.17
2018-02-22T10:14:47.972Z,38.03
2018-02-22T10:17:16.656Z,48.22
2018-02-22T10:19:45.043Z,52.03
2018-02-22T10:22:13.694Z,51.78
2018-02-22T10:24:42.085Z,42.37
2018-02-22T10:27:10.474Z,53.27
2018-02-22T10:29:39.166Z,42.50
2018-02-22T10:32:07.547Z,50.93
2018-02-22T10:34:35.962Z,38.30
2018-02-22T10:37:04.358Z,53.63
2018-02-22T10:39:33.230Z,51.03
2018-02-22T10:42:01.842Z,45.73
2018-02-22T10:44:31.213Z,48.73
2018-02-22T10:46:59.994Z,48.95
2018-02-22T10:49:28.662Z,46.58
2018-02-22T10:51:58.070Z,43.43
2018-02-22T10:54:26.466Z,54.80
2018-02-22T10:56:55.050Z,42.47
2018-02-22T10:59:23.454Z,46.07
2018-02-22T11:01:57.314Z,56.90
2018-02-22T11:04:25.702Z,45.30
2018-02-22T11:06:54.258Z,49.13
2018-02-22T11:09:22.724Z,45.20
2018-02-22T11:11:51.526Z,49.58
2018-02-22T11:14:20.198Z,39.63
2018-02-22T11:16:48.866Z,51.05
2018-02-22T11:19:17.266Z,36.57
2018-02-22T11:21:45.653Z,47.43
2018-02-22T11:24:14.363Z,43.13
2018-02-22T11:26:43.017Z,40.58
2018-02-22T11:29:11.729Z,38.73
2018-02-22T11:31:40.306Z,44.67
2018-02-22T11:34:08.852Z,42.87
2018-02-22T11:36:37.249Z,42.30
2018-02-22T11:39:05.255Z,49.73
2018-02-22T11:41:33.643Z,50.40
2018-02-22T11:44:02.228Z,39.37
2018-02-22T11:46:30.907Z,46.75
2018-02-22T11:48:59.631Z,51.47
2018-02-22T11:51:29.279Z,48.83
2018-02-22T11:53:58.658Z,50.03
2018-02-22T11:56:27.166Z,44.67
2018-02-22T11:58:55.830Z,51.92
2018-02-22T12:01:24.346Z,42.27
2018-02-22T12:03:53.499Z,46.43
2018-02-22T12:06:22.166Z,44.22
2018-02-22T12:08:50.550Z,42.07
2018-02-22T12:11:18.940Z,47.30
2018-02-22T12:13:47.461Z,47.03
2018-02-22T12:16:15.858Z,37.43
2018-02-22T12:18:44.305Z,47.83
2018-02-22T12:21:13.850Z,52.03
2018-02-22T12:23:42.242Z,46.07
2018-02-22T12:26:11.674Z,55.58
2018-02-22T12:28:40.934Z,54.33
2018-02-22T12:31:09.426Z,46.10
2018-02-22T12:33:38.845Z,41.42
2018-02-22T12:36:07.325Z,45.70
2018-02-22T12:38:36.619Z,50.93
2018-02-22T12:41:05.239Z,53.80
2018-02-22T12:43:33.723Z,39.57
2018-02-22T12:46:02.400Z,55.40
2018-02-22T12:48:31.061Z,45.83
2018-02-22T12:50:59.757Z,53.30
2018-02-22T12:53:28.241Z,46.47
2018-02-22T12:55:56.717Z,52.53
2018-02-22T12:58:25.319Z,47.93
2018-02-22T13:00:53.709Z,42.63
2018-02-22T13:03:22.430Z,44.83
2018-02-22T13:05:50.823Z,47.13
2018-02-22T13:08:19.442Z,61.97
2018-02-22T13:10:47.851Z,52.23
2018-02-22T13:13:17.323Z,43.03
2018-02-22T13:15:45.899Z,47.10
2018-02-22T13:18:14.094Z,41.27
2018-02-22T13:20:42.750Z,43.42
2018-02-22T13:23:11.414Z,41.83
2018-02-22T13:25:40.936Z,46.83
2018-02-22T13:28:09.328Z,53.27
2018-02-22T13:30:38.494Z,51.73
2018-02-22T13:33:17.877Z,50.20
2018-02-22T13:35:46.565Z,49.58
2018-02-22T13:38:26.249Z,35.65
2018-02-22T13:40:54.962Z,48.27
2018-02-22T13:43:23.358Z,48.37
2018-02-22T13:45:51.935Z,38.33
2018-02-22T13:48:20.335Z,42.57
2018-02-22T13:51:00.738Z,37.53
2018-02-22T13:53:29.370Z,42.53
2018-02-22T13:55:58.524Z,41.93
2018-02-22T13:58:26.914Z,43.20
2018-02-22T14:01:06.430Z,41.20
2018-02-22T14:03:35.881Z,52.83
2018-02-22T14:06:04.278Z,46.73
2018-02-22T14:08:45.638Z,43.00
2018-02-22T14:11:14.014Z,44.00
2018-02-22T14:13:42.781Z,41.13
2018-02-22T14:16:11.637Z,44.07
2018-02-22T14:18:40.032Z,42.67
2018-02-22T14:21:09.447Z,41.43
2018-02-22T14:23:37.845Z,45.70
2018-02-22T14:26:07.303Z,43.45
2018-02-22T14:28:35.705Z,41.97
2018-02-22T14:31:04.363Z,42.00
2018-02-22T14:33:32.742Z,55.27
2018-02-22T14:36:01.986Z,48.60
2018-02-22T14:38:31.270Z,43.63
2018-02-22T14:40:59.818Z,41.40
2018-02-22T14:43:28.203Z,50.50
2018-02-22T14:45:56.594Z,42.50
2018-02-22T14:48:25.407Z,44.65
2018-02-22T14:50:53.894Z,43.83
2018-02-22T14:53:22.432Z,48.80
2018-02-22T14:55:50.820Z,43.83
2018-02-22T14:58:20.238Z,35.75
2018-02-22T15:00:54.381Z,47.13
2018-02-22T15:03:23.543Z,40.90
2018-02-22T15:05:51.757Z,36.35
2018-02-22T15:08:20.916Z,39.20
2018-02-22T15:10:49.438Z,44.57
2018-02-22T15:13:18.152Z,35.57
2018-02-22T15:15:46.553Z,35.50
2018-02-22T15:18:14.930Z,43.05
2018-02-22T15:20:43.629Z,43.20
2018-02-22T15:23:12.594Z,45.07
2018-02-22T15:25:41.237Z,35.37
2018-02-22T15:28:09.638Z,38.30
2018-02-22T15:30:38.030Z,45.53
2018-02-22T15:33:07.459Z,41.37
2018-02-22T15:35:35.850Z,38.77
2018-02-22T15:38:04.505Z,36.70
2018-02-22T15:40:33.174Z,45.17
2018-02-22T15:43:01.678Z,50.47
2018-02-22T15:45:30.178Z,42.70
2018-02-22T15:47:58.696Z,37.10
2018-02-22T15:50:27.154Z,47.10
2018-02-22T15:52:55.634Z,44.90
2018-02-22T15:55:24.026Z,35.13
2018-02-22T15:57:52.738Z,51.70
2018-02-22T16:00:21.147Z,43.40
2018-02-22T16:02:49.818Z,47.55
2018-02-22T16:05:18.482Z,43.93
2018-02-22T16:07:46.863Z,44.60
2018-02-22T16:10:15.582Z,41.70
2018-02-22T16:12:44.031Z,41.33
2018-02-22T16:15:13.468Z,43.47
2018-02-22T16:17:42.130Z,39.88
2018-02-22T16:20:10.523Z,46.70
2018-02-22T16:22:38.991Z,47.13
2018-02-22T16:25:07.674Z,44.97
2018-02-22T16:27:36.370Z,41.22
2018-02-22T16:30:05.099Z,41.83
2018-02-22T16:32:33.925Z,42.10
2018-02-22T16:35:02.470Z,47.57
2018-02-22T16:37:31.075Z,39.40
2018-02-22T16:39:59.446Z,40.20
2018-02-22T16:42:30.290Z,43.10
2018-02-22T16:44:58.838Z,40.00
2018-02-22T16:47:27.377Z,37.43
2018-02-22T16:49:55.986Z,52.53
2018-02-22T16:52:24.720Z,41.42
2018-02-22T16:54:53.131Z,40.10
2018-02-22T16:57:21.562Z,45.53
2018-02-22T16:59:50.026Z,41.25
2018-02-22T17:02:18.673Z,46.87
2018-02-22T17:04:47.062Z,53.00
2018-02-22T17:07:15.661Z,40.73
2018-02-22T17:09:44.214Z,42.07
2018-02-22T17:12:12.611Z,45.90
2018-02-22T17:14:41.058Z,43.63
2018-02-22T17:17:09.757Z,48.47
2018-02-22T17:19:38.139Z,45.77
2018-02-22T17:22:06.819Z,45.80
2018-02-22T17:24:35.204Z,44.70
2018-02-22T17:27:09.182Z,48.23
2018-02-22T17:29:43.095Z,44.37
2018-02-22T17:32:17.013Z,48.03
2018-02-22T17:34:45.437Z,51.20
2018-02-22T17:37:16.397Z,46.90
2018-02-22T17:39:50.913Z,51.13
2018-02-22T17:42:19.378Z,50.67
2018-02-22T17:44:47.572Z,44.80
2018-02-22T17:47:16.034Z,62.78
2018-02-22T17:49:44.706Z,53.93
2018-02-22T17:52:13.364Z,42.77
2018-02-22T17:54:41.974Z,53.23
2018-02-22T17:57:10.445Z,44.00
2018-02-22T17:59:38.653Z,49.40
2018-02-22T18:02:06.943Z,48.17
2018-02-22T18:04:35.479Z,47.03
2018-02-22T18:07:04.535Z,52.27
2018-02-22T18:09:33.059Z,48.73
2018-02-22T18:12:01.772Z,48.85
2018-02-22T18:14:30.244Z,54.47
2018-02-22T18:16:59.401Z,50.10
2018-02-22T18:19:28.059Z,45.88
2018-02-22T18:21:56.442Z,45.80
2018-02-22T18:24:25.875Z,54.70
2018-02-22T18:26:54.523Z,50.70
2018-02-22T18:29:23.059Z,53.60
2018-02-22T18:31:51.722Z,52.75
2018-02-22T18:34:20.107Z,59.03
2018-02-22T18:36:48.638Z,59.47
2018-02-22T18:39:17.026Z,56.47
2018-02-22T18:41:50.851Z,61.03
2018-02-22T18:44:24.855Z,55.83
2018-02-22T18:46:53.269Z,59.47
2018-02-22T18:49:21.936Z,53.20
2018-02-22T18:51:50.621Z,68.22
2018-02-22T18:54:19.495Z,60.50
2018-02-22T18:56:47.891Z,51.37
2018-02-22T18:59:16.577Z,67.62
2018-02-22T19:01:45.266Z,53.07
2018-02-22T19:04:13.663Z,67.60
2018-02-22T19:06:42.527Z,54.78
2018-02-22T19:09:11.192Z,66.80
2018-02-22T19:11:39.658Z,57.07
2018-02-22T19:14:08.059Z,49.93
2018-02-22T19:16:36.718Z,56.80
2018-02-22T19:19:06.155Z,64.97
2018-02-22T19:21:34.530Z,59.70
2018-02-22T19:24:03.742Z,54.20
2018-02-22T19:26:32.399Z,58.30
2018-02-22T19:29:01.066Z,56.83
2018-02-22T19:31:29.464Z,63.00
2018-02-22T19:33:57.843Z,63.17
2018-02-22T19:36:26.238Z,57.20
2018-02-22T19:38:55.533Z,46.83
2018-02-22T19:41:24.281Z,55.07
2018-02-22T19:43:52.929Z,58.45
2018-02-22T19:46:21.407Z,60.43
2018-02-22T19:48:50.573Z,62.60
2018-02-22T19:51:18.977Z,52.43
2018-02-22T19:53:47.643Z,55.92
2018-02-22T19:56:16.195Z,56.40
2018-02-22T19:58:44.719Z,52.53
2018-02-22T20:01:13.115Z,50.60
2018-02-22T20:03:42.471Z,51.03
2018-02-22T20:06:11.035Z,48.83
2018-02-22T20:08:40.283Z,59.13
2018-02-22T20:11:08.692Z,51.80
2018-02-22T20:13:37.116Z,56.17
2018-02-22T20:16:05.633Z,48.72
2018-02-22T20:18:34.152Z,58.07
2018-02-22T20:21:02.750Z,51.30
2018-02-22T20:23:31.270Z,47.57
2018-02-22T20:26:01.027Z,52.27
2018-02-22T20:28:29.698Z,59.47
2018-02-22T20:30:58.398Z,64.47
2018-02-22T20:33:27.202Z,59.27
2018-02-22T20:35:55.702Z,56.07
2018-02-22T20:38:24.450Z,51.35
2018-02-22T20:40:52.562Z,54.37
2018-02-22T20:43:21.062Z,51.70
2018-02-22T20:45:49.895Z,48.70
2018-02-22T20:48:18.140Z,59.83
2018-02-22T20:50:46.620Z,52.35
2018-02-22T20:53:15.106Z,44.00
2018-02-22T20:55:46.189Z,54.53
2018-02-22T20:58:14.602Z,46.40
2018-02-22T21:00:43.049Z,50.70
2018-02-22T21:03:11.274Z,59.70
2018-02-22T21:05:39.837Z,48.83
2018-02-22T21:08:08.521Z,45.90
2018-02-22T21:10:36.742Z,45.80
2018-02-22T21:13:05.129Z,51.33
2018-02-22T21:15:33.518Z,47.53
2018-02-22T21:18:02.082Z,46.80
2018-02-22T21:20:30.473Z,48.67
2018-02-22T21:22:59.571Z,44.50
2018-02-22T21:25:28.230Z,43.05
2018-02-22T21:27:56.670Z,59.67
2018-02-22T21:30:26.733Z,44.80
2018-02-22T21:32:55.314Z,40.70
2018-02-22T21:35:24.748Z,44.90
2018-02-22T21:37:53.414Z,41.33
2018-02-22T21:40:22.395Z,49.43
2018-02-22T21:42:51.829Z,50.92
2018-02-22T21:45:20.255Z,41.90
2018-02-22T21:47:48.652Z,41.00
2018-02-22T21:50:17.046Z,49.00
2018-02-22T21:52:45.438Z,42.53
2018-02-22T21:55:13.842Z,38.37
2018-02-22T21:57:42.218Z,47.20
2018-02-22T22:00:10.605Z,44.00
2018-02-22T22:02:39.186Z,44.50
2018-02-22T22:05:07.622Z,45.93
2018-02-22T22:07:36.249Z,41.27
2018-02-22T22:10:05.405Z,34.20
2018-02-22T22:12:33.784Z,45.60
2018-02-22T22:15:02.452Z,39.95
2018-02-22T22:17:30.657Z,43.07
2018-02-22T22:19:59.053Z,41.10
2018-02-22T22:22:27.525Z,36.80
2018-02-22T22:24:55.920Z,45.50
2018-02-22T22:27:24.587Z,35.10
2018-02-22T22:29:53.273Z,50.05
2018-02-22T22:32:22.535Z,43.83
2018-02-22T22:34:51.201Z,47.20
2018-02-22T22:37:20.626Z,44.70
2018-02-22T22:39:49.205Z,52.10
2018-02-22T22:42:17.718Z,50.03
2018-02-22T22:44:46.103Z,44.43
2018-02-22T22:47:14.490Z,52.30
2018-02-22T22:49:43.638Z,52.13
2018-02-22T22:52:12.314Z,54.45
2018-02-22T22:54:41.742Z,41.63
2018-02-22T22:57:10.126Z,43.23
2018-02-22T22:59:38.506Z,56.70
2018-02-22T23:02:07.186Z,61.87
2018-02-22T23:04:35.858Z,53.42
2018-02-22T23:07:04.522Z,49.08
2018-02-22T23:09:33.656Z,59.42
2018-02-22T23:12:02.043Z,45.27
2018-02-22T23:14:30.709Z,52.85
2018-02-22T23:16:59.114Z,44.10
2018-02-22T23:19:27.503Z,38.63
2018-02-22T23:21:56.665Z,55.03
2018-02-22T23:24:25.057Z,49.20
2018-02-22T23:26:53.742Z,48.63
2018-02-22T23:29:22.330Z,44.93
2018-02-22T23:31:50.931Z,52.37
2018-02-22T23:34:19.895Z,40.77
2018-02-22T23:36:48.345Z,44.73
2018-02-22T23:39:16.813Z,50.63
2018-02-22T23:41:55.821Z,55.33
2018-02-22T23:44:24.478Z,49.03
2018-02-22T23:46:52.674Z,47.97
2018-02-22T23:49:21.826Z,50.53
2018-02-22T23:51:50.830Z,44.70
2018-02-22T23:54:19.038Z,40.60
2018-02-22T23:56:48.179Z,45.23
2018-02-22T23:59:16.501Z,49.67
